createdAt,value
2019-04-10T00:00:39.142Z,23.65
2019-04-10T00:03:23.957Z,20.68
2019-04-10T00:05:44.576Z,22.60
2019-04-10T00:08:16.153Z,20.82
2019-04-10T00:10:47.959Z,17.12
2019-04-10T00:13:20.533Z,18.85
2019-04-10T00:15:52.862Z,17.35
2019-04-10T00:18:24.316Z,15.60
2019-04-10T00:20:56.623Z,17.20
2019-04-10T00:23:28.014Z,26.37
2019-04-10T00:25:59.508Z,20.45
2019-04-10T00:28:31.740Z,20.75
2019-04-10T00:31:03.332Z,15.60
2019-04-10T00:33:34.895Z,22.30
2019-04-10T00:36:06.493Z,28.67
2019-04-10T00:38:38.039Z,22.67
2019-04-10T00:41:10.181Z,35.25
2019-04-10T00:43:41.705Z,28.67
2019-04-10T00:46:13.681Z,21.73
2019-04-10T00:48:45.333Z,24.92
2019-04-10T00:51:17.256Z,38.98
2019-04-10T00:53:49.661Z,28.55
2019-04-10T00:56:21.336Z,21.97
2019-04-10T00:58:53.236Z,23.60
2019-04-10T01:01:24.816Z,29.80
2019-04-10T01:03:56.454Z,23.45
2019-04-10T01:06:28.235Z,20.23
2019-04-10T01:08:59.642Z,35.85
2019-04-10T01:11:31.268Z,24.90
2019-04-10T01:14:02.792Z,28.20
2019-04-10T01:16:34.357Z,22.60
2019-04-10T01:19:05.903Z,26.87
2019-04-10T01:21:37.484Z,30.17
2019-04-10T01:24:09.102Z,27.65
2019-04-10T01:26:40.578Z,23.55
2019-04-10T01:29:11.998Z,23.52
2019-04-10T01:31:43.596Z,25.12
2019-04-10T01:34:15.092Z,26.00
2019-04-10T01:36:46.692Z,29.57
2019-04-10T01:39:22.686Z,31.80
2019-04-10T01:41:54.453Z,27.25
2019-04-10T01:44:26.888Z,25.55
2019-04-10T01:46:59.099Z,33.13
2019-04-10T01:49:31.562Z,30.00
2019-04-10T01:52:03.317Z,47.23
2019-04-10T01:54:35.371Z,38.05
2019-04-10T01:57:06.881Z,29.55
2019-04-10T01:59:40.378Z,28.65
2019-04-10T02:02:19.457Z,29.18
2019-04-10T02:04:53.456Z,32.25
2019-04-10T02:07:26.398Z,48.60
2019-04-10T02:09:57.936Z,46.33
2019-04-10T02:12:30.388Z,36.15
2019-04-10T02:15:03.018Z,30.12
2019-04-10T02:17:34.748Z,32.58
2019-04-10T02:20:10.475Z,29.77
2019-04-10T02:22:42.380Z,31.87
2019-04-10T02:25:14.009Z,38.13
2019-04-10T02:27:46.714Z,52.78
2019-04-10T02:30:19.590Z,48.35
2019-04-10T02:32:52.856Z,37.95
2019-04-10T02:35:25.225Z,42.10
2019-04-10T02:38:00.593Z,51.55
2019-04-10T02:40:30.976Z,43.42
2019-04-10T02:43:03.307Z,48.52
2019-04-10T02:45:36.439Z,48.02
2019-04-10T02:48:09.839Z,55.52
2019-04-10T02:50:42.830Z,47.03
2019-04-10T02:53:15.382Z,52.17
2019-04-10T02:55:49.348Z,44.55
2019-04-10T02:58:22.157Z,61.37
2019-04-10T03:00:54.836Z,51.30
2019-04-10T03:03:27.615Z,56.58
2019-04-10T03:06:00.345Z,61.08
2019-04-10T03:08:49.432Z,44.67
2019-04-10T03:11:09.278Z,60.63
2019-04-10T03:13:38.686Z,56.58
2019-04-10T03:16:11.705Z,62.23
2019-04-10T03:18:43.445Z,57.80
2019-04-10T03:21:15.340Z,50.15
2019-04-10T03:23:47.565Z,48.10
2019-04-10T03:26:19.524Z,48.05
2019-04-10T03:28:51.451Z,43.60
2019-04-10T03:31:24.711Z,43.52
2019-04-10T03:34:01.012Z,47.20
2019-04-10T03:36:38.067Z,42.88
2019-04-10T03:39:10.695Z,53.33
2019-04-10T03:41:42.355Z,44.38
2019-04-10T03:44:14.519Z,44.60
2019-04-10T03:46:46.960Z,44.98
2019-04-10T03:49:19.910Z,45.83
2019-04-10T03:51:52.585Z,41.68
2019-04-10T03:54:24.258Z,39.67
2019-04-10T03:56:56.249Z,40.50
2019-04-10T03:59:28.546Z,42.85
2019-04-10T04:02:00.206Z,42.73
2019-04-10T04:04:31.799Z,43.25
2019-04-10T04:07:03.351Z,45.08
2019-04-10T04:09:35.652Z,46.37
2019-04-10T04:12:08.372Z,47.53
2019-04-10T04:14:40.860Z,45.12
2019-04-10T04:17:12.308Z,41.95
2019-04-10T04:19:43.736Z,52.33
2019-04-10T04:22:15.236Z,48.87
2019-04-10T04:24:46.682Z,39.53
2019-04-10T04:27:18.921Z,39.92
2019-04-10T04:29:51.941Z,39.95
2019-04-10T04:32:23.809Z,47.98
2019-04-10T04:34:56.330Z,36.88
2019-04-10T04:37:28.030Z,33.13
2019-04-10T04:40:00.611Z,34.53
2019-04-10T04:42:32.980Z,39.65
2019-04-10T04:45:05.449Z,40.35
2019-04-10T04:47:37.105Z,38.70
2019-04-10T04:50:09.686Z,34.58
2019-04-10T04:52:41.403Z,34.33
2019-04-10T04:55:12.935Z,35.90
2019-04-10T04:57:45.039Z,38.70
2019-04-10T05:00:17.371Z,32.30
2019-04-10T05:02:49.341Z,34.03
2019-04-10T05:05:21.005Z,34.73
2019-04-10T05:07:59.318Z,33.90
2019-04-10T05:10:25.760Z,42.70
2019-04-10T05:12:57.842Z,40.98
2019-04-10T05:15:29.397Z,27.48
2019-04-10T05:18:02.003Z,31.02
2019-04-10T05:20:43.951Z,35.23
2019-04-10T05:23:10.350Z,37.73
2019-04-10T05:25:41.998Z,37.93
2019-04-10T05:28:15.216Z,37.42
2019-04-10T05:30:47.002Z,37.15
2019-04-10T05:33:18.693Z,34.10
2019-04-10T05:35:50.865Z,33.42
2019-04-10T05:38:22.857Z,29.25
2019-04-10T05:40:55.188Z,38.38
2019-04-10T05:43:26.858Z,27.45
2019-04-10T05:45:59.271Z,37.60
2019-04-10T05:48:31.534Z,36.03
2019-04-10T05:51:05.729Z,39.48
2019-04-10T05:53:36.558Z,39.53
2019-04-10T05:56:08.225Z,35.48
2019-04-10T05:58:40.768Z,38.73
2019-04-10T06:01:13.506Z,31.50
2019-04-10T06:03:45.748Z,37.73
2019-04-10T06:06:17.495Z,35.00
2019-04-10T06:08:51.075Z,35.20
2019-04-10T06:11:22.689Z,32.67
2019-04-10T06:13:54.300Z,37.40
2019-04-10T06:16:26.149Z,34.75
2019-04-10T06:18:58.000Z,33.48
2019-04-10T06:21:29.929Z,30.97
2019-04-10T06:24:01.535Z,34.03
2019-04-10T06:26:32.982Z,35.17
2019-04-10T06:29:04.588Z,32.20
2019-04-10T06:31:36.799Z,37.83
2019-04-10T06:34:08.904Z,32.42
2019-04-10T06:36:41.709Z,47.27
2019-04-10T06:39:13.246Z,34.70
2019-04-10T06:41:44.889Z,32.93
2019-04-10T06:44:17.425Z,31.70
2019-04-10T06:46:49.405Z,34.50
2019-04-10T06:49:20.945Z,42.53
2019-04-10T06:51:53.463Z,24.63
2019-04-10T06:54:25.108Z,22.07
2019-04-10T06:56:56.646Z,34.75
2019-04-10T06:59:28.389Z,32.35
2019-04-10T07:02:13.045Z,36.55
2019-04-10T07:04:45.019Z,33.70
2019-04-10T07:07:11.291Z,36.40
2019-04-10T07:09:40.025Z,37.20
2019-04-10T07:12:12.190Z,33.25
2019-04-10T07:14:47.652Z,35.38
2019-04-10T07:17:17.985Z,53.15
2019-04-10T07:19:49.610Z,46.28
2019-04-10T07:22:21.286Z,35.58
2019-04-10T07:24:52.763Z,41.37
2019-04-10T07:27:24.358Z,36.00
2019-04-10T07:29:59.424Z,66.22
2019-04-10T07:32:30.102Z,82.60
2019-04-10T07:35:03.026Z,65.22
2019-04-10T07:37:36.011Z,64.12
2019-04-10T07:40:08.442Z,55.73
2019-04-10T07:42:41.906Z,37.53
2019-04-10T07:45:14.082Z,34.80
2019-04-10T07:47:46.215Z,35.52
2019-04-10T07:50:18.517Z,29.70
2019-04-10T07:52:50.173Z,23.30
2019-04-10T07:55:22.802Z,32.30
2019-04-10T07:57:55.287Z,32.33
2019-04-10T08:00:27.136Z,20.20
2019-04-10T08:02:59.730Z,24.18
2019-04-10T08:05:31.315Z,26.55
2019-04-10T08:08:03.056Z,26.57
2019-04-10T08:10:34.886Z,26.90
2019-04-10T08:13:06.571Z,31.97
2019-04-10T08:15:38.134Z,23.30
2019-04-10T08:18:10.113Z,27.15
2019-04-10T08:20:42.496Z,32.30
2019-04-10T08:23:14.171Z,27.05
2019-04-10T08:25:45.812Z,21.50
2019-04-10T08:28:17.796Z,24.80
2019-04-10T08:30:50.404Z,23.27
2019-04-10T08:33:22.271Z,18.23
2019-04-10T08:35:54.785Z,21.65
2019-04-10T08:38:28.025Z,23.00
2019-04-10T08:41:00.640Z,26.07
2019-04-10T08:43:32.448Z,21.90
2019-04-10T08:46:05.253Z,19.95
2019-04-10T08:48:37.000Z,14.18
2019-04-10T08:51:08.710Z,17.70
2019-04-10T08:53:40.412Z,21.90
2019-04-10T08:56:12.894Z,14.60
2019-04-10T08:58:45.603Z,17.85
2019-04-10T09:01:17.457Z,39.42
2019-04-10T09:03:49.181Z,21.15
2019-04-10T09:06:20.786Z,25.80
2019-04-10T09:08:53.056Z,25.08
2019-04-10T09:11:28.423Z,22.70
2019-04-10T09:13:58.901Z,25.50
2019-04-10T09:16:31.018Z,18.02
2019-04-10T09:19:03.499Z,19.42
2019-04-10T09:21:35.118Z,19.60
2019-04-10T09:24:06.709Z,15.65
2019-04-10T09:26:38.318Z,14.55
2019-04-10T09:29:09.805Z,15.70
2019-04-10T09:31:41.905Z,14.43
2019-04-10T09:34:14.372Z,14.50
2019-04-10T09:36:45.823Z,21.80
2019-04-10T09:39:17.530Z,23.62
2019-04-10T09:41:50.121Z,22.13
2019-04-10T09:44:22.839Z,21.93
2019-04-10T09:46:54.338Z,16.27
2019-04-10T09:49:35.703Z,15.03
2019-04-10T09:51:58.698Z,19.25
2019-04-10T09:54:31.404Z,26.00
2019-04-10T09:57:03.350Z,16.02
2019-04-10T09:59:36.977Z,16.52
2019-04-10T10:02:09.122Z,25.32
2019-04-10T10:04:41.905Z,13.72
2019-04-10T10:07:14.424Z,13.95
2019-04-10T10:09:47.186Z,28.92
2019-04-10T10:12:18.761Z,33.83
2019-04-10T10:14:50.442Z,13.20
2019-04-10T10:17:22.430Z,13.88
2019-04-10T10:19:53.929Z,10.63
2019-04-10T10:22:25.370Z,19.60
2019-04-10T10:24:57.809Z,14.83
2019-04-10T10:27:30.130Z,8.88
2019-04-10T10:30:02.188Z,12.28
2019-04-10T10:32:35.158Z,10.10
2019-04-10T10:35:07.828Z,9.18
2019-04-10T10:37:39.186Z,11.20
2019-04-10T10:40:11.795Z,13.32
2019-04-10T10:42:43.535Z,15.78
2019-04-10T10:45:15.824Z,15.28
2019-04-10T10:47:47.176Z,12.90
2019-04-10T10:50:19.257Z,12.37
2019-04-10T10:52:50.758Z,9.93
2019-04-10T10:55:23.291Z,13.70
2019-04-10T10:57:55.449Z,10.23
2019-04-10T11:00:27.241Z,15.45
2019-04-10T11:02:58.730Z,15.65
2019-04-10T11:05:31.835Z,18.92
2019-04-10T11:08:05.264Z,16.05
2019-04-10T11:10:36.900Z,20.37
2019-04-10T11:13:08.839Z,15.98
2019-04-10T11:15:42.721Z,16.32
2019-04-10T11:18:13.899Z,14.40
2019-04-10T11:20:45.344Z,14.00
2019-04-10T11:23:18.135Z,14.63
2019-04-10T11:25:50.362Z,11.60
2019-04-10T11:28:22.261Z,14.90
2019-04-10T11:30:56.103Z,14.68
2019-04-10T11:36:09.750Z,14.07
2019-04-10T11:38:44.948Z,14.83
2019-04-10T11:41:18.925Z,19.12
2019-04-10T11:43:50.128Z,19.37
2019-04-10T11:46:22.776Z,32.75
2019-04-10T11:48:55.603Z,17.85
2019-04-10T11:54:02.232Z,15.48
2019-04-10T11:56:35.651Z,21.85
2019-04-10T11:59:09.188Z,19.00
2019-04-10T12:01:40.156Z,26.52
2019-04-10T12:04:11.586Z,19.65
2019-04-10T12:06:46.621Z,26.12
2019-04-10T12:10:01.937Z,17.82
2019-04-10T12:11:50.398Z,17.25
2019-04-10T12:14:21.860Z,12.35
2019-04-10T12:16:53.576Z,11.60
2019-04-10T12:19:25.230Z,24.00
2019-04-10T12:21:56.580Z,14.00
2019-04-10T12:24:28.065Z,16.42
2019-04-10T12:27:00.422Z,11.15
2019-04-10T12:29:33.014Z,21.23
2019-04-10T12:32:04.593Z,8.73
2019-04-10T12:34:36.214Z,12.23
2019-04-10T12:37:08.917Z,12.43
2019-04-10T12:39:41.220Z,16.27
2019-04-10T12:42:12.948Z,14.60
2019-04-10T12:44:44.315Z,16.80
2019-04-10T12:47:16.006Z,18.67
2019-04-10T12:49:47.732Z,15.88
2019-04-10T12:52:20.679Z,12.20
2019-04-10T12:54:51.959Z,23.25
2019-04-10T12:57:23.569Z,10.35
2019-04-10T13:00:00.699Z,12.85
2019-04-10T13:02:28.181Z,21.73
2019-04-10T13:04:59.505Z,21.12
2019-04-10T13:07:31.680Z,11.85
2019-04-10T13:10:04.516Z,13.45
2019-04-10T13:12:35.957Z,16.65
2019-04-10T13:15:08.245Z,10.60
2019-04-10T13:17:40.750Z,9.65
2019-04-10T13:20:13.600Z,11.30
2019-04-10T13:22:45.094Z,9.30
2019-04-10T13:25:16.470Z,12.55
2019-04-10T13:27:47.917Z,13.72
2019-04-10T13:30:19.318Z,12.98
2019-04-10T13:32:51.907Z,10.68
2019-04-10T13:35:24.111Z,10.75
2019-04-10T13:37:56.860Z,9.85
2019-04-10T13:40:28.389Z,12.80
2019-04-10T13:43:01.209Z,10.48
2019-04-10T13:45:32.833Z,11.65
2019-04-10T13:48:04.211Z,7.80
2019-04-10T13:50:35.599Z,10.20
2019-04-10T13:53:07.937Z,15.20
2019-04-10T13:55:40.097Z,14.47
2019-04-10T13:58:11.564Z,17.55
2019-04-10T14:00:43.553Z,19.90
2019-04-10T14:03:15.057Z,22.70
2019-04-10T14:05:47.634Z,25.15
2019-04-10T14:08:19.366Z,18.85
2019-04-10T14:10:50.927Z,16.35
2019-04-10T14:13:24.093Z,18.25
2019-04-10T14:15:56.082Z,18.90
2019-04-10T14:18:27.653Z,16.02
2019-04-10T14:20:59.594Z,16.27
2019-04-10T14:23:31.464Z,18.80
2019-04-10T14:26:04.507Z,16.55
2019-04-10T14:28:37.523Z,18.07
2019-04-10T14:31:13.930Z,19.73
2019-04-10T14:33:46.902Z,22.40
2019-04-10T14:36:18.371Z,17.50
2019-04-10T14:38:52.561Z,19.37
2019-04-10T14:41:24.812Z,18.73
2019-04-10T14:44:00.393Z,16.97
2019-04-10T14:46:31.936Z,18.62
2019-04-10T14:49:03.383Z,19.12
2019-04-10T14:51:36.591Z,17.87
2019-04-10T14:54:09.693Z,23.60
2019-04-10T14:56:42.059Z,27.62
2019-04-10T14:59:15.742Z,19.25
2019-04-10T15:01:48.357Z,15.25
2019-04-10T15:04:19.765Z,19.52
2019-04-10T15:06:51.360Z,17.27
2019-04-10T15:09:25.984Z,17.20
2019-04-10T15:11:57.355Z,18.42
2019-04-10T15:14:29.868Z,22.82
2019-04-10T15:17:04.801Z,19.67
2019-04-10T15:19:36.418Z,20.25
2019-04-10T15:22:08.054Z,14.23
2019-04-10T15:24:39.770Z,17.30
2019-04-10T15:27:11.308Z,15.15
2019-04-10T15:29:43.048Z,13.85
2019-04-10T15:32:15.117Z,13.15
2019-04-10T15:34:46.762Z,14.35
2019-04-10T15:37:18.200Z,13.70
2019-04-10T15:39:49.901Z,15.30
2019-04-10T15:42:21.791Z,17.85
2019-04-10T15:44:54.506Z,20.90
2019-04-10T15:47:26.788Z,19.05
2019-04-10T15:49:58.482Z,20.40
2019-04-10T15:52:31.312Z,18.05
2019-04-10T15:55:03.740Z,11.78
2019-04-10T15:57:47.000Z,21.62
2019-04-10T16:00:10.805Z,17.17
2019-04-10T16:02:42.644Z,18.10
2019-04-10T16:05:15.446Z,24.80
2019-04-10T16:07:47.244Z,25.35
2019-04-10T16:10:30.728Z,17.52
2019-04-10T16:13:17.244Z,19.13
2019-04-10T16:15:48.820Z,21.97
2019-04-10T16:18:23.087Z,19.98
2019-04-10T16:20:55.611Z,19.42
2019-04-10T16:23:31.439Z,20.40
2019-04-10T16:26:03.477Z,23.57
2019-04-10T16:28:35.536Z,21.00
2019-04-10T16:31:07.648Z,16.85
2019-04-10T16:33:39.236Z,19.87
2019-04-10T16:36:11.304Z,19.80
2019-04-10T16:38:42.865Z,21.00
2019-04-10T16:41:14.537Z,21.73
2019-04-10T16:43:46.679Z,21.55
2019-04-10T16:46:20.297Z,37.08
2019-04-10T16:48:52.553Z,24.60
2019-04-10T16:51:24.158Z,23.67
2019-04-10T16:53:56.906Z,23.12
2019-04-10T16:56:29.679Z,24.40
2019-04-10T16:59:02.446Z,24.45
2019-04-10T17:01:35.037Z,18.95
2019-04-10T17:04:07.090Z,23.85
2019-04-10T17:06:38.806Z,21.25
2019-04-10T17:09:12.307Z,25.55
2019-04-10T17:11:45.210Z,25.47
2019-04-10T17:14:17.795Z,30.30
2019-04-10T17:16:50.312Z,23.15
2019-04-10T17:19:21.919Z,24.18
2019-04-10T17:21:54.267Z,32.17
2019-04-10T17:24:25.993Z,31.70
2019-04-10T17:26:57.544Z,26.48
2019-04-10T17:29:29.423Z,27.77
2019-04-10T17:32:00.974Z,25.65
2019-04-10T17:34:32.782Z,23.55
2019-04-10T17:37:05.448Z,31.95
2019-04-10T17:39:37.650Z,33.48
2019-04-10T17:42:10.182Z,28.52
2019-04-10T17:44:42.191Z,28.87
2019-04-10T17:47:14.465Z,23.60
2019-04-10T17:49:46.195Z,30.50
2019-04-10T17:52:18.738Z,35.30
2019-04-10T17:54:51.264Z,26.25
2019-04-10T17:57:34.498Z,28.73
2019-04-10T17:59:56.658Z,30.90
2019-04-10T18:02:28.375Z,28.00
2019-04-10T18:05:00.242Z,24.77
2019-04-10T18:07:32.286Z,30.15
2019-04-10T18:10:05.049Z,22.02
2019-04-10T18:12:38.430Z,29.90
2019-04-10T18:15:09.987Z,22.70
2019-04-10T18:17:42.687Z,28.73
2019-04-10T18:20:15.700Z,30.35
2019-04-10T18:22:47.493Z,27.27
2019-04-10T18:25:20.085Z,27.42
2019-04-10T18:27:52.474Z,29.18
2019-04-10T18:30:25.198Z,32.90
2019-04-10T18:32:58.081Z,31.35
2019-04-10T18:35:30.861Z,38.02
2019-04-10T18:38:03.583Z,30.88
2019-04-10T18:40:35.429Z,30.12
2019-04-10T18:43:07.709Z,32.38
2019-04-10T18:45:42.080Z,38.85
2019-04-10T18:48:12.846Z,35.30
2019-04-10T18:50:45.425Z,36.30
2019-04-10T18:53:17.228Z,42.33
2019-04-10T18:55:48.956Z,45.85
2019-04-10T18:58:28.219Z,44.25
2019-04-10T19:01:07.695Z,51.40
2019-04-10T19:03:50.264Z,46.55
2019-04-10T19:06:26.723Z,49.33
2019-04-10T19:09:06.182Z,47.00
2019-04-10T19:11:35.736Z,54.35
2019-04-10T19:14:08.207Z,46.75
2019-04-10T19:16:40.179Z,51.18
2019-04-10T19:19:12.455Z,47.40
2019-04-10T19:21:44.258Z,52.88
2019-04-10T19:24:16.124Z,46.48
2019-04-10T19:26:47.923Z,46.35
2019-04-10T19:29:19.736Z,48.87
2019-04-10T19:31:54.148Z,51.13
2019-04-10T19:34:27.460Z,43.60
2019-04-10T19:37:00.560Z,48.68
2019-04-10T19:39:32.584Z,47.08
2019-04-10T19:42:05.362Z,41.20
2019-04-10T19:44:37.529Z,41.55
2019-04-10T19:47:10.394Z,42.78
2019-04-10T19:49:42.704Z,39.40
2019-04-10T19:52:14.519Z,42.15
2019-04-10T19:54:47.249Z,33.95
2019-04-10T19:57:19.370Z,34.65
2019-04-10T19:59:52.243Z,33.15
2019-04-10T20:02:24.656Z,33.05
2019-04-10T20:04:57.002Z,30.95
2019-04-10T20:07:29.200Z,28.25
2019-04-10T20:10:19.297Z,31.93
2019-04-10T20:12:51.187Z,27.00
2019-04-10T20:15:23.020Z,32.78
2019-04-10T20:17:54.933Z,30.02
2019-04-10T20:20:27.192Z,26.85
2019-04-10T20:22:59.469Z,25.15
2019-04-10T20:25:32.508Z,32.85
2019-04-10T20:28:04.713Z,29.90
2019-04-10T20:30:37.692Z,33.02
2019-04-10T20:33:10.454Z,30.30
2019-04-10T20:35:42.591Z,30.50
2019-04-10T20:38:15.448Z,31.42
2019-04-10T20:40:47.340Z,28.50
2019-04-10T20:43:19.022Z,29.60
2019-04-10T20:45:50.863Z,30.10
2019-04-10T20:48:22.560Z,33.30
2019-04-10T20:50:54.455Z,30.52
2019-04-10T20:53:26.273Z,32.05
2019-04-10T20:55:57.855Z,29.63
2019-04-10T20:58:29.507Z,29.80
2019-04-10T21:01:01.095Z,29.57
2019-04-10T21:03:33.828Z,34.18
2019-04-10T21:06:06.846Z,36.25
2019-04-10T21:08:38.476Z,36.20
2019-04-10T21:11:10.016Z,35.50
2019-04-10T21:13:42.541Z,33.02
2019-04-10T21:16:14.210Z,32.35
2019-04-10T21:18:46.253Z,31.70
2019-04-10T21:21:18.580Z,34.92
2019-04-10T21:23:50.135Z,32.48
2019-04-10T21:26:21.992Z,33.35
2019-04-10T21:28:53.735Z,33.18
2019-04-10T21:31:42.780Z,35.05
2019-04-10T21:34:23.035Z,32.98
2019-04-10T21:36:54.749Z,31.10
2019-04-10T21:39:26.300Z,25.80
2019-04-10T21:42:11.077Z,30.60
2019-04-10T21:44:31.494Z,32.58
2019-04-10T21:47:03.474Z,33.40
2019-04-10T21:49:35.919Z,30.40
2019-04-10T21:52:09.777Z,31.55
2019-04-10T21:54:49.631Z,30.50
2019-04-10T21:57:14.571Z,36.20
2019-04-10T21:59:46.180Z,30.40
2019-04-10T22:02:17.854Z,31.35
2019-04-10T22:04:49.815Z,29.70
2019-04-10T22:07:23.835Z,31.40
2019-04-10T22:10:00.080Z,30.45
2019-04-10T22:12:38.982Z,35.35
2019-04-10T22:15:08.683Z,31.33
2019-04-10T22:20:12.846Z,32.03
2019-04-10T22:22:44.996Z,30.65
2019-04-10T22:25:16.698Z,33.90
2019-04-10T22:27:48.449Z,36.80
2019-04-10T22:30:21.042Z,30.37
2019-04-10T22:32:53.428Z,30.70
2019-04-10T22:35:26.437Z,32.05
2019-04-10T22:37:58.139Z,36.20
2019-04-10T22:40:31.171Z,34.10
2019-04-10T22:43:03.393Z,39.78
2019-04-10T22:45:36.051Z,39.35
2019-04-10T22:48:08.358Z,30.85
2019-04-10T22:50:39.991Z,34.53
2019-04-10T22:53:11.546Z,30.45
2019-04-10T22:55:44.428Z,38.15
2019-04-10T22:58:17.082Z,35.50
2019-04-10T23:00:48.829Z,29.18
2019-04-10T23:03:20.522Z,32.40
2019-04-10T23:05:53.088Z,31.87
2019-04-10T23:08:25.344Z,29.95
2019-04-10T23:10:57.350Z,33.10
2019-04-10T23:13:30.114Z,33.40
2019-04-10T23:16:02.015Z,33.67
2019-04-10T23:18:34.612Z,32.48
2019-04-10T23:21:06.211Z,32.53
2019-04-10T23:23:38.958Z,28.17
2019-04-10T23:26:11.121Z,31.90
2019-04-10T23:28:42.698Z,30.30
2019-04-10T23:31:15.195Z,31.62
2019-04-10T23:33:48.274Z,33.67
2019-04-10T23:36:20.250Z,29.42
2019-04-10T23:38:52.791Z,33.00
2019-04-10T23:41:25.344Z,32.20
2019-04-10T23:43:57.142Z,32.30
2019-04-10T23:46:28.703Z,29.82
2019-04-10T23:49:01.331Z,32.38
2019-04-10T23:51:33.491Z,31.07
2019-04-10T23:54:04.973Z,29.42
2019-04-10T23:56:36.495Z,32.13
2019-04-10T23:59:08.718Z,26.97
